createdAt,value
2022-07-30T00:01:19.411Z,99.90
2022-07-30T00:04:13.213Z,99.90
2022-07-30T00:07:01.337Z,99.90
2022-07-30T00:09:55.232Z,99.90
2022-07-30T00:12:42.364Z,99.90
2022-07-30T00:15:36.222Z,99.90
2022-07-30T00:18:30.228Z,99.90
2022-07-30T00:21:34.577Z,99.90
2022-07-30T00:24:30.259Z,99.90
2022-07-30T00:27:24.255Z,99.90
2022-07-30T00:30:19.244Z,99.90
2022-07-30T00:33:08.193Z,99.90
2022-07-30T00:36:02.259Z,99.90
2022-07-30T00:38:56.330Z,99.90
2022-07-30T00:42:05.299Z,99.90
2022-07-30T00:44:53.270Z,99.90
2022-07-30T00:47:47.278Z,99.90
2022-07-30T00:50:34.417Z,99.90
2022-07-30T00:53:28.322Z,99.90
2022-07-30T00:56:15.456Z,99.90
2022-07-30T00:59:09.528Z,99.90
2022-07-30T01:01:56.688Z,99.90
2022-07-30T01:04:51.315Z,99.90
2022-07-30T01:07:39.924Z,99.90
2022-07-30T01:10:33.316Z,99.90
2022-07-30T01:13:20.468Z,99.90
2022-07-30T01:16:21.382Z,99.90
2022-07-30T01:19:39.655Z,99.90
2022-07-30T01:22:33.330Z,99.90
2022-07-30T01:25:32.350Z,99.90
2022-07-30T01:28:39.327Z,99.90
2022-07-30T01:31:28.542Z,99.90
2022-07-30T01:34:24.374Z,99.90
2022-07-30T01:37:12.155Z,99.90
2022-07-30T01:40:06.346Z,99.90
2022-07-30T01:42:55.329Z,99.90
2022-07-30T01:45:50.532Z,99.90
2022-07-30T01:48:41.068Z,99.90
2022-07-30T01:51:37.719Z,99.90
2022-07-30T01:54:26.705Z,99.90
2022-07-30T01:57:21.412Z,99.90
2022-07-30T02:00:16.422Z,99.90
2022-07-30T02:03:12.492Z,99.90
2022-07-30T02:06:28.443Z,99.90
2022-07-30T02:09:26.401Z,99.90
2022-07-30T02:12:30.290Z,99.90
2022-07-30T02:15:43.427Z,99.90
2022-07-30T02:18:43.838Z,99.90
2022-07-30T02:21:49.637Z,99.90
2022-07-30T02:24:41.578Z,99.90
2022-07-30T02:27:38.503Z,99.90
2022-07-30T02:30:36.522Z,99.90
2022-07-30T02:33:29.107Z,99.90
2022-07-30T02:36:25.457Z,99.90
2022-07-30T02:39:15.015Z,99.90
2022-07-30T02:42:11.449Z,99.90
2022-07-30T02:45:00.144Z,99.90
2022-07-30T02:48:02.472Z,99.90
2022-07-30T02:50:53.260Z,99.90
2022-07-30T02:53:51.796Z,99.90
2022-07-30T02:56:40.634Z,99.90
2022-07-30T02:59:37.532Z,99.90
2022-07-30T03:02:29.293Z,99.90
2022-07-30T03:05:23.536Z,99.90
2022-07-30T03:08:11.274Z,99.90
2022-07-30T03:11:06.503Z,99.90
2022-07-30T03:13:53.735Z,99.90
2022-07-30T03:16:53.522Z,99.90
2022-07-30T03:19:41.506Z,99.90
2022-07-30T03:22:36.556Z,99.90
2022-07-30T03:25:26.569Z,99.90
2022-07-30T03:28:21.566Z,99.90
2022-07-30T03:31:10.597Z,99.90
2022-07-30T03:34:06.549Z,99.90
2022-07-30T03:36:55.575Z,99.90
2022-07-30T03:39:49.526Z,99.90
2022-07-30T03:42:37.823Z,99.90
2022-07-30T03:45:31.547Z,99.90
2022-07-30T03:48:18.902Z,99.90
2022-07-30T03:51:16.576Z,99.90
2022-07-30T03:54:13.810Z,99.90
2022-07-30T03:57:03.468Z,99.90
2022-07-30T03:59:58.608Z,99.90
2022-07-30T04:02:47.149Z,99.90
2022-07-30T04:05:41.739Z,99.90
2022-07-30T04:08:29.206Z,99.90
2022-07-30T04:11:40.592Z,99.90
2022-07-30T04:14:43.094Z,99.90
2022-07-30T04:17:42.631Z,99.90
2022-07-30T04:20:36.793Z,99.90
2022-07-30T04:23:30.616Z,99.90
2022-07-30T04:26:26.597Z,99.90
2022-07-30T04:29:18.130Z,99.90
2022-07-30T04:32:14.606Z,99.90
2022-07-30T04:35:04.106Z,99.90
2022-07-30T04:37:57.633Z,99.90
2022-07-30T04:40:44.789Z,99.90
2022-07-30T04:43:40.074Z,99.90
2022-07-30T04:46:27.345Z,99.90
2022-07-30T04:49:23.786Z,99.90
2022-07-30T04:52:12.423Z,99.90
2022-07-30T04:55:10.653Z,99.90
2022-07-30T04:57:59.540Z,99.90
2022-07-30T05:00:58.652Z,99.90
2022-07-30T05:03:53.697Z,99.90
2022-07-30T05:06:48.674Z,99.90
2022-07-30T05:09:36.552Z,99.90
2022-07-30T05:12:39.733Z,99.90
2022-07-30T05:15:35.973Z,99.90
2022-07-30T05:18:24.459Z,99.90
2022-07-30T05:21:17.697Z,99.90
2022-07-30T05:24:05.340Z,99.90
2022-07-30T05:26:59.061Z,99.90
2022-07-30T05:29:46.978Z,99.90
2022-07-30T05:32:41.753Z,99.90
2022-07-30T05:35:28.845Z,99.90
2022-07-30T05:38:24.721Z,99.90
2022-07-30T05:41:32.759Z,99.90
2022-07-30T05:44:26.730Z,99.90
2022-07-30T05:47:13.831Z,99.90
2022-07-30T05:50:07.738Z,99.90
2022-07-30T05:52:56.065Z,99.90
2022-07-30T05:55:49.781Z,99.90
2022-07-30T05:58:36.998Z,99.90
2022-07-30T06:01:30.814Z,99.90
2022-07-30T06:04:17.927Z,99.90
2022-07-30T06:07:11.769Z,99.90
2022-07-30T06:10:06.894Z,99.90
2022-07-30T06:12:53.956Z,99.90
2022-07-30T06:15:47.813Z,99.90
2022-07-30T06:18:34.909Z,99.90
2022-07-30T06:21:28.791Z,99.90
2022-07-30T06:24:35.909Z,99.90
2022-07-30T06:27:31.969Z,99.90
2022-07-30T06:30:20.183Z,99.90
2022-07-30T06:33:24.822Z,99.90
2022-07-30T06:36:14.207Z,99.90
2022-07-30T06:39:07.853Z,99.90
2022-07-30T06:42:01.797Z,99.90
2022-07-30T06:44:48.880Z,99.90
2022-07-30T06:47:42.819Z,99.90
2022-07-30T06:50:29.980Z,99.90
2022-07-30T06:53:23.821Z,99.90
2022-07-30T06:56:17.829Z,99.90
2022-07-30T06:59:04.913Z,99.90
2022-07-30T07:02:00.945Z,99.90
2022-07-30T07:04:48.094Z,99.90
2022-07-30T07:07:46.470Z,99.90
2022-07-30T07:10:49.878Z,99.90
2022-07-30T07:13:43.857Z,99.90
2022-07-30T07:16:37.941Z,99.90
2022-07-30T07:19:59.511Z,99.90
2022-07-30T07:22:38.867Z,99.90
2022-07-30T07:25:32.939Z,99.90
2022-07-30T07:28:20.102Z,99.90
2022-07-30T07:32:05.758Z,99.90
2022-07-30T07:34:24.074Z,99.90
2022-07-30T07:37:17.926Z,99.90
2022-07-30T07:40:05.845Z,99.90
2022-07-30T07:42:59.936Z,99.90
2022-07-30T07:45:53.975Z,99.90
2022-07-30T07:48:41.086Z,99.90
2022-07-30T07:51:48.197Z,99.90
2022-07-30T07:54:35.805Z,99.90
2022-07-30T07:57:28.966Z,99.90
2022-07-30T08:00:17.791Z,99.90
2022-07-30T08:03:10.940Z,99.90
2022-07-30T08:06:06.342Z,99.90
2022-07-30T08:09:00.985Z,99.90
2022-07-30T08:11:54.551Z,99.90
2022-07-30T08:14:48.060Z,99.90
2022-07-30T08:17:43.602Z,99.90
2022-07-30T08:20:37.040Z,99.90
2022-07-30T08:23:30.975Z,99.90
2022-07-30T08:26:25.001Z,99.90
2022-07-30T08:29:17.024Z,99.90
2022-07-30T08:32:12.026Z,99.90
2022-07-30T08:34:59.114Z,99.90
2022-07-30T08:37:54.001Z,99.90
2022-07-30T08:40:41.232Z,99.90
2022-07-30T08:43:42.016Z,99.90
2022-07-30T08:46:47.430Z,99.90
2022-07-30T08:49:36.181Z,99.90
2022-07-30T08:52:30.021Z,99.90
2022-07-30T08:55:18.083Z,99.90
2022-07-30T08:58:21.014Z,99.90
2022-07-30T09:01:08.352Z,99.90
2022-07-30T09:04:02.151Z,99.90
2022-07-30T09:06:56.046Z,99.90
2022-07-30T09:09:43.494Z,99.90
2022-07-30T09:12:46.046Z,99.90
2022-07-30T09:15:38.628Z,99.90
2022-07-30T09:18:36.050Z,99.90
2022-07-30T09:21:29.324Z,99.90
2022-07-30T09:24:23.072Z,99.90
2022-07-30T09:27:10.172Z,99.90
2022-07-30T09:30:06.102Z,99.90
2022-07-30T09:32:56.643Z,99.90
2022-07-30T09:35:50.102Z,99.90
2022-07-30T09:38:54.264Z,99.90
2022-07-30T09:41:48.241Z,99.90
2022-07-30T09:44:42.094Z,99.90
2022-07-30T09:47:47.170Z,99.90
2022-07-30T09:50:34.333Z,99.20
2022-07-30T09:53:31.166Z,98.90
2022-07-30T09:56:26.852Z,97.90
2022-07-30T09:59:38.193Z,97.70
2022-07-30T10:02:33.703Z,96.50
2022-07-30T10:05:28.186Z,95.70
2022-07-30T10:08:16.583Z,95.70
2022-07-30T10:11:11.138Z,95.70
2022-07-30T10:14:06.194Z,95.50
2022-07-30T10:16:53.885Z,95.60
2022-07-30T10:19:47.286Z,94.50
2022-07-30T10:22:36.723Z,94.10
2022-07-30T10:25:33.179Z,94.70
2022-07-30T10:28:24.410Z,94.60
2022-07-30T10:31:48.171Z,94.70
2022-07-30T10:34:34.554Z,94.10
2022-07-30T10:37:25.859Z,94.30
2022-07-30T10:40:39.554Z,94.50
2022-07-30T10:43:50.994Z,94.00
2022-07-30T10:47:07.229Z,94.00
2022-07-30T10:50:14.388Z,93.50
2022-07-30T10:53:09.217Z,94.00
2022-07-30T10:56:26.221Z,94.00
2022-07-30T10:59:15.037Z,93.60
2022-07-30T11:02:15.266Z,93.70
2022-07-30T11:05:43.878Z,92.90
2022-07-30T11:08:42.767Z,92.00
2022-07-30T11:12:01.432Z,92.20
2022-07-30T11:14:57.198Z,91.30
2022-07-30T11:18:12.351Z,90.70
2022-07-30T11:21:22.650Z,90.20
2022-07-30T11:24:45.410Z,90.50
2022-07-30T11:27:45.732Z,89.60
2022-07-30T11:30:34.965Z,89.90
2022-07-30T11:33:32.101Z,89.20
2022-07-30T11:36:20.471Z,88.60
2022-07-30T11:39:18.294Z,88.60
2022-07-30T11:42:33.277Z,89.00
2022-07-30T11:45:23.350Z,88.30
2022-07-30T11:48:19.288Z,88.00
2022-07-30T11:51:06.748Z,88.00
2022-07-30T11:54:14.314Z,88.30
2022-07-30T11:57:04.558Z,88.40
2022-07-30T12:00:02.338Z,89.00
2022-07-30T12:05:52.550Z,88.70
2022-07-30T12:08:49.393Z,87.90
2022-07-30T12:11:37.479Z,87.20
2022-07-30T12:14:31.331Z,88.20
2022-07-30T12:17:25.401Z,88.00
2022-07-30T12:20:24.455Z,87.00
2022-07-30T12:23:15.425Z,86.70
2022-07-30T12:26:26.778Z,86.20
2022-07-30T12:29:14.370Z,86.70
2022-07-30T12:32:08.379Z,86.20
2022-07-30T12:35:02.377Z,86.40
2022-07-30T12:38:11.387Z,86.90
2022-07-30T12:41:07.427Z,85.70
2022-07-30T12:44:02.433Z,85.30
2022-07-30T12:46:49.539Z,84.00
2022-07-30T12:49:48.759Z,84.60
2022-07-30T12:52:44.403Z,85.20
2022-07-30T12:55:40.423Z,85.30
2022-07-30T12:58:36.610Z,85.20
2022-07-30T13:01:49.474Z,86.20
2022-07-30T13:05:10.414Z,85.40
2022-07-30T13:08:00.447Z,84.50
2022-07-30T13:11:20.605Z,83.60
2022-07-30T13:14:08.993Z,82.60
2022-07-30T13:17:05.105Z,80.70
2022-07-30T13:19:59.425Z,81.50
2022-07-30T13:22:53.511Z,81.60
2022-07-30T13:25:40.651Z,82.20
2022-07-30T13:28:48.469Z,80.60
2022-07-30T13:31:43.567Z,81.10
2022-07-30T13:34:37.476Z,81.60
2022-07-30T13:37:38.052Z,81.80
2022-07-30T13:40:32.477Z,81.70
2022-07-30T13:43:19.905Z,81.60
2022-07-30T13:46:13.538Z,82.00
2022-07-30T13:49:00.745Z,82.50
2022-07-30T13:51:54.486Z,82.60
2022-07-30T13:54:48.508Z,82.90
2022-07-30T13:57:45.061Z,82.70
2022-07-30T14:00:40.796Z,82.30
2022-07-30T14:03:27.922Z,83.40
2022-07-30T14:06:22.529Z,83.30
2022-07-30T14:09:09.712Z,84.10
2022-07-30T14:12:03.525Z,85.30
2022-07-30T14:14:50.716Z,84.70
2022-07-30T14:17:44.545Z,85.20
2022-07-30T14:20:48.275Z,85.30
2022-07-30T14:23:42.555Z,85.70
2022-07-30T14:26:36.767Z,85.90
2022-07-30T14:29:24.137Z,87.10
2022-07-30T14:32:17.569Z,86.70
2022-07-30T14:35:13.607Z,86.60
2022-07-30T14:38:07.554Z,86.60
2022-07-30T14:41:01.596Z,85.90
2022-07-30T14:43:48.728Z,84.70
2022-07-30T14:46:52.335Z,84.10
2022-07-30T14:49:40.047Z,84.40
2022-07-30T14:52:33.622Z,84.80
2022-07-30T14:55:20.824Z,84.60
2022-07-30T14:58:14.658Z,82.40
2022-07-30T15:01:16.019Z,81.70
2022-07-30T15:04:04.481Z,82.50
2022-07-30T15:06:58.672Z,82.10
2022-07-30T15:09:46.154Z,81.90
2022-07-30T15:12:39.678Z,82.70
2022-07-30T15:15:32.159Z,82.50
2022-07-30T15:18:29.639Z,83.40
2022-07-30T15:21:23.635Z,84.20
2022-07-30T15:24:11.326Z,84.40
2022-07-30T15:27:05.641Z,84.10
2022-07-30T15:29:52.890Z,84.20
2022-07-30T15:32:46.652Z,84.30
2022-07-30T15:35:33.980Z,84.80
2022-07-30T15:38:27.665Z,84.20
2022-07-30T15:41:21.662Z,84.10
2022-07-30T15:44:09.020Z,85.10
2022-07-30T15:47:02.689Z,85.40
2022-07-30T15:49:50.131Z,85.80
2022-07-30T15:52:43.756Z,86.10
2022-07-30T15:55:31.023Z,86.60
2022-07-30T15:58:43.512Z,87.00
2022-07-30T16:01:31.078Z,87.80
2022-07-30T16:04:31.234Z,87.50
2022-07-30T16:07:19.237Z,87.60
2022-07-30T16:10:13.722Z,88.60
2022-07-30T16:13:07.721Z,88.60
2022-07-30T16:15:54.776Z,89.20
2022-07-30T16:18:48.779Z,89.60
2022-07-30T16:21:35.988Z,88.50
2022-07-30T16:24:29.792Z,87.70
2022-07-30T16:27:23.851Z,87.60
2022-07-30T16:30:18.731Z,88.10
2022-07-30T16:33:12.752Z,88.60
2022-07-30T16:35:59.937Z,89.30
2022-07-30T16:38:53.780Z,89.80
2022-07-30T16:41:47.744Z,89.50
2022-07-30T16:44:41.776Z,88.60
2022-07-30T16:47:35.770Z,88.50
2022-07-30T16:50:22.958Z,88.40
2022-07-30T16:53:17.772Z,88.90
2022-07-30T16:56:05.187Z,90.10
2022-07-30T16:58:58.834Z,89.90
2022-07-30T17:01:47.364Z,90.10
2022-07-30T17:04:41.847Z,90.10
2022-07-30T17:07:35.805Z,90.20
2022-07-30T17:10:25.660Z,90.50
2022-07-30T17:13:19.845Z,90.90
2022-07-30T17:16:07.691Z,91.50
2022-07-30T17:19:08.165Z,92.30
2022-07-30T17:21:56.640Z,92.30
2022-07-30T17:24:50.828Z,92.60
2022-07-30T17:27:44.821Z,92.80
2022-07-30T17:30:31.980Z,92.70
2022-07-30T17:33:25.843Z,92.70
2022-07-30T17:36:13.446Z,92.40
2022-07-30T17:39:06.835Z,93.00
2022-07-30T17:41:59.001Z,92.60
2022-07-30T17:44:56.845Z,92.60
2022-07-30T17:47:50.857Z,92.20
2022-07-30T17:50:44.890Z,92.40
2022-07-30T17:53:39.840Z,92.60
2022-07-30T17:56:27.485Z,92.70
2022-07-30T17:59:20.894Z,92.80
2022-07-30T18:02:08.523Z,92.90
2022-07-30T18:05:01.927Z,93.10
2022-07-30T18:07:55.976Z,93.20
2022-07-30T18:10:43.139Z,93.10
2022-07-30T18:13:36.897Z,93.20
2022-07-30T18:16:31.905Z,93.40
2022-07-30T18:19:27.415Z,93.60
2022-07-30T18:22:15.103Z,93.70
2022-07-30T18:25:18.068Z,93.70
2022-07-30T18:28:12.938Z,93.50
2022-07-30T18:31:00.179Z,93.60
2022-07-30T18:33:55.955Z,93.60
2022-07-30T18:36:43.173Z,93.70
2022-07-30T18:39:36.923Z,93.60
2022-07-30T18:42:24.028Z,93.60
2022-07-30T18:45:22.013Z,93.70
2022-07-30T18:48:09.266Z,93.70
2022-07-30T18:51:13.915Z,93.70
2022-07-30T18:54:08.277Z,93.80
2022-07-30T18:57:01.985Z,93.80
2022-07-30T18:59:56.008Z,93.90
2022-07-30T19:02:49.959Z,93.90
2022-07-30T19:05:44.084Z,94.00
2022-07-30T19:08:37.986Z,94.00
2022-07-30T19:11:25.102Z,94.20
2022-07-30T19:14:19.987Z,94.20
2022-07-30T19:17:13.640Z,94.30
2022-07-30T19:20:08.027Z,94.50
2022-07-30T19:23:06.034Z,94.50
2022-07-30T19:26:00.116Z,94.70
2022-07-30T19:28:54.007Z,94.70
2022-07-30T19:31:51.054Z,94.80
2022-07-30T19:34:46.013Z,94.90
2022-07-30T19:37:33.132Z,95.10
2022-07-30T19:40:27.078Z,95.10
2022-07-30T19:43:14.271Z,95.30
2022-07-30T19:46:08.032Z,95.40
2022-07-30T19:49:02.153Z,95.60
2022-07-30T19:52:09.899Z,95.70
2022-07-30T19:55:17.039Z,95.80
2022-07-30T20:01:40.562Z,96.00
2022-07-30T20:04:35.087Z,96.00
2022-07-30T20:07:29.078Z,96.00
2022-07-30T20:10:20.051Z,96.20
2022-07-30T20:13:15.160Z,96.20
2022-07-30T20:16:03.178Z,96.30
2022-07-30T20:18:57.157Z,96.40
2022-07-30T20:21:57.007Z,96.40
2022-07-30T20:24:54.119Z,96.50
2022-07-30T20:27:41.772Z,96.60
2022-07-30T20:30:36.109Z,96.60
2022-07-30T20:33:35.797Z,96.70
2022-07-30T20:36:31.132Z,96.80
2022-07-30T20:39:19.942Z,96.80
2022-07-30T20:42:18.622Z,96.80
2022-07-30T20:45:16.153Z,96.90
2022-07-30T20:48:03.409Z,96.90
2022-07-30T20:50:58.213Z,96.90
2022-07-30T20:53:45.791Z,97.00
2022-07-30T20:56:40.305Z,97.10
2022-07-30T20:59:35.186Z,97.30
2022-07-30T21:02:29.289Z,97.20
2022-07-30T21:05:19.843Z,97.30
2022-07-30T21:08:14.162Z,97.30
2022-07-30T21:11:03.156Z,97.40
2022-07-30T21:13:57.157Z,97.40
2022-07-30T21:16:44.482Z,97.60
2022-07-30T21:19:38.168Z,97.60
2022-07-30T21:22:25.323Z,97.70
2022-07-30T21:25:19.226Z,97.80
2022-07-30T21:28:06.453Z,97.80
2022-07-30T21:31:00.206Z,97.90
2022-07-30T21:33:49.318Z,98.00
2022-07-30T21:36:44.195Z,97.90
2022-07-30T21:39:39.988Z,97.90
2022-07-30T21:42:30.440Z,98.00
2022-07-30T21:45:28.362Z,98.10
2022-07-30T21:48:33.247Z,98.00
2022-07-30T21:51:27.294Z,98.10
2022-07-30T21:54:17.092Z,98.20
2022-07-30T21:57:26.422Z,98.60
2022-07-30T22:00:22.319Z,98.30
2022-07-30T22:04:01.453Z,98.50
2022-07-30T22:06:24.318Z,98.40
2022-07-30T22:09:33.327Z,98.50
2022-07-30T22:12:21.646Z,98.60
2022-07-30T22:15:19.268Z,98.60
2022-07-30T22:18:06.874Z,98.90
2022-07-30T22:21:01.250Z,99.20
2022-07-30T22:23:54.966Z,99.50
2022-07-30T22:26:52.316Z,99.60
2022-07-30T22:29:42.626Z,99.80
2022-07-30T22:32:36.318Z,99.90
2022-07-30T22:35:33.356Z,99.90
2022-07-30T22:38:28.306Z,99.90
2022-07-30T22:41:15.619Z,99.90
2022-07-30T22:44:12.840Z,99.90
2022-07-30T22:47:00.138Z,99.90
2022-07-30T22:49:56.048Z,99.90
2022-07-30T22:52:53.518Z,99.90
2022-07-30T22:56:00.357Z,99.90
2022-07-30T22:58:48.700Z,99.90
2022-07-30T23:01:43.607Z,99.90
2022-07-30T23:04:30.879Z,99.90
2022-07-30T23:07:35.931Z,99.90
2022-07-30T23:10:28.232Z,99.90
2022-07-30T23:12:16.424Z,96.00
2022-07-30T23:13:21.375Z,99.90
2022-07-30T23:16:15.364Z,99.90
2022-07-30T23:19:03.394Z,99.90
2022-07-30T23:21:57.416Z,99.90
2022-07-30T23:24:44.588Z,99.90
2022-07-30T23:27:38.373Z,99.90
2022-07-30T23:30:34.015Z,99.90
2022-07-30T23:33:21.504Z,99.80
2022-07-30T23:36:16.469Z,99.50
2022-07-30T23:39:03.931Z,99.20
2022-07-30T23:41:57.466Z,99.00
2022-07-30T23:44:44.623Z,98.90
2022-07-30T23:48:01.263Z,98.80
2022-07-30T23:50:52.399Z,98.80
2022-07-30T23:53:39.585Z,98.30
2022-07-30T23:56:33.430Z,97.80
2022-07-30T23:59:20.767Z,97.40
